Pagrindinis puslapis
METAR-TAF:

METAR-TAF

Oro uostai :

Gvidonija, Italija

platuma: 42-00N, ilguma: 012-44E, Aukštis: 88 m

Dabartinis oras

Ataskaita buvo paskelbta 8 valandos ir 24 minutes, ne 17:55 UTC
Vėjas 13 kt iš Pietų/Pietryčių
Temperatūra 13°C
Drėgmė 67%
Slėgis 1016 hPa
Matomumas 10 km arba daugiau
Išsisklaidę debesys ne aukštis 3500 ft

METAR: LIRG 211755Z 15013KT 9999 SCT035 13/07 Q1016

Laikas: 03:19 (02:19 UTC)

Prognozė

Ataskaita buvo paskelbta 12 valandos ir 19 minutes, ne 14:00 UTC
Prognozė galioja nuo 21 metu 15 UTC su 21 metu 24 UTC
Vėjas 15 kt iš Pietų/Pietryčių
Matomumas 10 km arba daugiau
Išsisklaidę debesys ne aukštis 3000 ft

TAF: LIRG 211400Z 2115/2124 15015KT 9999 SCT030

Orai ataskaitas ir orų prognozės (METAR, TAF).

turimą stotys yra geltonos ir raudonos taškus žemėlapyje.

Perkelti pele per norėdami pamatyti stoties vardą.

Tada spustelėkite, norėdami matyti oro stebėjimo ir prognozės.

Norėdami pakeisti žemėlapį: spustelėkite ant žalios mygtukų su juodo kryžiaus žemyn,; žalią mygtuką su brūkšneliu, jei norite nutolinti; arba žalių rodyklių gretimoms žemėlapius.


METAR-TAF: